sensor_id;sensor_type;location;lat;lon;timestamp;pressure;altitude;pressure_sealevel;temperature;humidity
54459;BME280;40368;49.350;8.152;2023-07-20T00:00:41;1000.2;;;28.17;30.78
54459;BME280;40368;49.350;8.152;2023-07-20T00:01:41;1000.2;;;28.11;30.92
54459;BME280;40368;49.350;8.152;2023-07-20T00:02:41;1000.2;;;28.11;30.86
54459;BME280;40368;49.350;8.152;2023-07-20T00:03:42;1000.2;;;28.12;30.91
54459;BME280;40368;49.350;8.152;2023-07-20T00:04:42;1000.2;;;28.13;30.92
54459;BME280;40368;49.350;8.152;2023-07-20T00:05:42;1000.2;;;28.13;30.99
54459;BME280;40368;49.350;8.152;2023-07-20T00:06:41;1000.2;;;28.12;31.13
54459;BME280;40368;49.350;8.152;2023-07-20T00:07:41;1000.3;;;28.09;30.95
54459;BME280;40368;49.350;8.152;2023-07-20T00:08:41;1000.2;;;28.08;31.08
54459;BME280;40368;49.350;8.152;2023-07-20T00:09:42;1000.2;;;28.07;31.04
54459;BME280;40368;49.350;8.152;2023-07-20T00:10:41;1000.3;;;28.05;30.91
54459;BME280;40368;49.350;8.152;2023-07-20T00:11:47;1000.3;;;28.01;31.05
54459;BME280;40368;49.350;8.152;2023-07-20T00:12:42;1000.3;;;28;31.2
54459;BME280;40368;49.350;8.152;2023-07-20T00:13:41;1000.3;;;28.03;31.31
54459;BME280;40368;49.350;8.152;2023-07-20T00:14:42;1000.3;;;28.04;31.23
54459;BME280;40368;49.350;8.152;2023-07-20T00:15:41;1000.3;;;28.01;31.18
54459;BME280;40368;49.350;8.152;2023-07-20T00:16:41;1000.2;;;27.98;31.22
54459;BME280;40368;49.350;8.152;2023-07-20T00:17:42;1000.3;;;27.97;31.21
54459;BME280;40368;49.350;8.152;2023-07-20T00:18:41;1000.3;;;27.99;31.2
54459;BME280;40368;49.350;8.152;2023-07-20T00:19:41;1000.3;;;27.96;31.16
54459;BME280;40368;49.350;8.152;2023-07-20T00:20:41;1000.3;;;27.9;31.36
54459;BME280;40368;49.350;8.152;2023-07-20T00:21:41;1000.3;;;27.9;31.37
54459;BME280;40368;49.350;8.152;2023-07-20T00:22:41;1000.3;;;27.83;31.46
54459;BME280;40368;49.350;8.152;2023-07-20T00:23:42;1000.2;;;27.75;31.58
54459;BME280;40368;49.350;8.152;2023-07-20T00:24:41;1000.3;;;27.72;31.65
54459;BME280;40368;49.350;8.152;2023-07-20T00:25:42;1000.2;;;27.64;31.78
54459;BME280;40368;49.350;8.152;2023-07-20T00:26:41;1000.3;;;27.64;31.76
54459;BME280;40368;49.350;8.152;2023-07-20T00:27:41;1000.3;;;27.64;31.68
54459;BME280;40368;49.350;8.152;2023-07-20T00:28:41;1000.2;;;27.6;31.64
54459;BME280;40368;49.350;8.152;2023-07-20T00:29:41;1000.2;;;27.58;31.9
54459;BME280;40368;49.350;8.152;2023-07-20T00:30:42;1000.3;;;27.56;32.03
54459;BME280;40368;49.350;8.152;2023-07-20T00:31:42;1000.2;;;27.52;32.01
54459;BME280;40368;49.350;8.152;2023-07-20T00:32:42;1000.2;;;27.53;31.99
54459;BME280;40368;49.350;8.152;2023-07-20T00:33:41;1000.2;;;27.5;32.03
54459;BME280;40368;49.350;8.152;2023-07-20T00:34:42;1000.3;;;27.52;32.07
54459;BME280;40368;49.350;8.152;2023-07-20T00:35:42;1000.2;;;27.53;32.08
54459;BME280;40368;49.350;8.152;2023-07-20T00:36:41;1000.2;;;27.47;31.78
54459;BME280;40368;49.350;8.152;2023-07-20T00:37:42;1000.2;;;27.37;32.25
54459;BME280;40368;49.350;8.152;2023-07-20T00:38:42;1000.2;;;27.39;32.27
54459;BME280;40368;49.350;8.152;2023-07-20T00:39:41;1000.3;;;27.41;32.21
54459;BME280;40368;49.350;8.152;2023-07-20T00:40:41;1000.2;;;27.4;32.31
54459;BME280;40368;49.350;8.152;2023-07-20T00:41:41;1000.2;;;27.41;32.1
54459;BME280;40368;49.350;8.152;2023-07-20T00:42:42;1000.2;;;27.42;32.28
54459;BME280;40368;49.350;8.152;2023-07-20T00:43:41;1000.2;;;27.41;32.35
54459;BME280;40368;49.350;8.152;2023-07-20T00:44:41;1000.2;;;27.48;32.3
54459;BME280;40368;49.350;8.152;2023-07-20T00:45:41;1000.2;;;27.48;31.97
54459;BME280;40368;49.350;8.152;2023-07-20T00:46:42;1000.2;;;27.41;32.21
54459;BME280;40368;49.350;8.152;2023-07-20T00:47:41;1000.2;;;27.36;32.29
54459;BME280;40368;49.350;8.152;2023-07-20T00:48:42;1000.2;;;27.29;32.34
54459;BME280;40368;49.350;8.152;2023-07-20T00:49:41;1000.2;;;27.24;32.57
54459;BME280;40368;49.350;8.152;2023-07-20T00:50:42;1000.2;;;27.22;32.51
54459;BME280;40368;49.350;8.152;2023-07-20T00:51:42;1000.2;;;27.27;32.41
54459;BME280;40368;49.350;8.152;2023-07-20T00:52:42;1000.2;;;27.28;32.49
54459;BME280;40368;49.350;8.152;2023-07-20T00:53:41;1000.2;;;27.25;32.56
54459;BME280;40368;49.350;8.152;2023-07-20T00:54:42;1000.2;;;27.27;32.53
54459;BME280;40368;49.350;8.152;2023-07-20T00:55:41;1000.3;;;27.3;32.69
54459;BME280;40368;49.350;8.152;2023-07-20T00:56:42;1000.3;;;27.3;32.58
54459;BME280;40368;49.350;8.152;2023-07-20T00:57:41;1000.3;;;27.35;32.46
54459;BME280;40368;49.350;8.152;2023-07-20T00:58:41;1000.3;;;27.36;32.29
54459;BME280;40368;49.350;8.152;2023-07-20T00:59:42;1000.3;;;27.32;32.57
54459;BME280;40368;49.350;8.152;2023-07-20T01:00:40;1000.3;;;27.25;32.44
54459;BME280;40368;49.350;8.152;2023-07-20T01:01:41;1000.2;;;27.25;32.47
54459;BME280;40368;49.350;8.152;2023-07-20T01:02:42;1000.3;;;27.21;32.64
54459;BME280;40368;49.350;8.152;2023-07-20T01:03:41;1000.3;;;27.2;32.45
54459;BME280;40368;49.350;8.152;2023-07-20T01:04:41;1000.2;;;27.19;32.59
54459;BME280;40368;49.350;8.152;2023-07-20T01:05:48;1000.3;;;27.17;32.69
54459;BME280;40368;49.350;8.152;2023-07-20T01:06:43;1000.2;;;27.13;32.67
54459;BME280;40368;49.350;8.152;2023-07-20T01:07:43;1000.2;;;27.11;32.75
54459;BME280;40368;49.350;8.152;2023-07-20T01:08:43;1000.2;;;27.12;32.9
54459;BME280;40368;49.350;8.152;2023-07-20T01:09:42;1000.2;;;27.13;32.74
54459;BME280;40368;49.350;8.152;2023-07-20T01:10:43;1000.2;;;27.18;32.6
54459;BME280;40368;49.350;8.152;2023-07-20T01:11:43;1000.2;;;27.21;32.62
54459;BME280;40368;49.350;8.152;2023-07-20T01:12:43;1000.2;;;27.23;32.58
54459;BME280;40368;49.350;8.152;2023-07-20T01:13:41;1000.2;;;27.18;32.8
54459;BME280;40368;49.350;8.152;2023-07-20T01:14:42;1000.2;;;27.11;32.78
54459;BME280;40368;49.350;8.152;2023-07-20T01:15:42;1000.2;;;27.08;32.87
54459;BME280;40368;49.350;8.152;2023-07-20T01:16:41;1000.2;;;27.07;32.94
54459;BME280;40368;49.350;8.152;2023-07-20T01:17:41;1000.2;;;27.06;32.79
54459;BME280;40368;49.350;8.152;2023-07-20T01:18:41;1000.2;;;27.11;32.91
54459;BME280;40368;49.350;8.152;2023-07-20T01:19:41;1000.2;;;27.09;32.79
54459;BME280;40368;49.350;8.152;2023-07-20T01:20:41;1000.2;;;27.07;32.79
54459;BME280;40368;49.350;8.152;2023-07-20T01:21:42;1000.2;;;27.04;32.98
54459;BME280;40368;49.350;8.152;2023-07-20T01:22:47;1000.3;;;26.99;33.13
54459;BME280;40368;49.350;8.152;2023-07-20T01:23:48;1000.2;;;26.93;33.16
54459;BME280;40368;49.350;8.152;2023-07-20T01:24:45;1000.2;;;26.91;33.21
54459;BME280;40368;49.350;8.152;2023-07-20T01:25:45;1000.3;;;26.92;33.33
54459;BME280;40368;49.350;8.152;2023-07-20T01:26:48;1000.2;;;26.95;33.17
54459;BME280;40368;49.350;8.152;2023-07-20T01:27:55;1000.2;;;26.94;33.11
54459;BME280;40368;49.350;8.152;2023-07-20T01:28:48;1000.2;;;26.86;33.09
54459;BME280;40368;49.350;8.152;2023-07-20T01:29:46;1000.2;;;26.89;33.24
54459;BME280;40368;49.350;8.152;2023-07-20T01:30:45;1000.2;;;26.92;33.15
54459;BME280;40368;49.350;8.152;2023-07-20T01:31:41;1000.2;;;26.92;33.32
54459;BME280;40368;49.350;8.152;2023-07-20T01:32:42;1000.2;;;26.89;33.55
54459;BME280;40368;49.350;8.152;2023-07-20T01:33:41;1000.2;;;26.86;33.38
54459;BME280;40368;49.350;8.152;2023-07-20T01:34:42;1000.2;;;26.85;33.31
54459;BME280;40368;49.350;8.152;2023-07-20T01:35:42;1000.2;;;26.85;33.29
54459;BME280;40368;49.350;8.152;2023-07-20T01:36:42;1000.2;;;26.84;33.36
54459;BME280;40368;49.350;8.152;2023-07-20T01:37:42;1000.2;;;26.88;33.28
54459;BME280;40368;49.350;8.152;2023-07-20T01:38:42;1000.2;;;26.94;33.08
54459;BME280;40368;49.350;8.152;2023-07-20T01:39:41;1000.2;;;26.96;33.18
54459;BME280;40368;49.350;8.152;2023-07-20T01:40:42;1000.3;;;26.92;33.36
54459;BME280;40368;49.350;8.152;2023-07-20T01:41:41;1000.3;;;26.85;33.49
54459;BME280;40368;49.350;8.152;2023-07-20T01:42:44;1000.3;;;26.81;33.44
54459;BME280;40368;49.350;8.152;2023-07-20T01:43:42;1000.2;;;26.78;33.47
54459;BME280;40368;49.350;8.152;2023-07-20T01:44:42;1000.2;;;26.75;33.5
54459;BME280;40368;49.350;8.152;2023-07-20T01:45:42;1000.2;;;26.7;33.77
54459;BME280;40368;49.350;8.152;2023-07-20T01:46:42;1000.2;;;26.67;33.67
54459;BME280;40368;49.350;8.152;2023-07-20T01:47:41;1000.2;;;26.67;33.83
54459;BME280;40368;49.350;8.152;2023-07-20T01:48:41;1000.2;;;26.67;33.62
54459;BME280;40368;49.350;8.152;2023-07-20T01:49:41;1000.2;;;26.71;33.66
54459;BME280;40368;49.350;8.152;2023-07-20T01:50:42;1000.2;;;26.67;33.67
54459;BME280;40368;49.350;8.152;2023-07-20T01:51:41;1000.2;;;26.64;33.75
54459;BME280;40368;49.350;8.152;2023-07-20T01:52:42;1000.2;;;26.64;33.89
54459;BME280;40368;49.350;8.152;2023-07-20T01:53:41;1000.2;;;26.61;33.8
54459;BME280;40368;49.350;8.152;2023-07-20T01:54:41;1000.2;;;26.6;34
54459;BME280;40368;49.350;8.152;2023-07-20T01:55:41;1000.2;;;26.59;33.8
54459;BME280;40368;49.350;8.152;2023-07-20T01:56:41;1000.1;;;26.61;33.82
54459;BME280;40368;49.350;8.152;2023-07-20T01:57:42;1000.1;;;26.62;33.86
54459;BME280;40368;49.350;8.152;2023-07-20T01:58:41;1000.1;;;26.65;33.71
54459;BME280;40368;49.350;8.152;2023-07-20T01:59:41;1000.1;;;26.7;33.5
54459;BME280;40368;49.350;8.152;2023-07-20T02:00:41;1000.1;;;26.66;33.75
54459;BME280;40368;49.350;8.152;2023-07-20T02:01:41;1000.2;;;26.64;33.91
54459;BME280;40368;49.350;8.152;2023-07-20T02:02:41;1000.1;;;26.63;33.72
54459;BME280;40368;49.350;8.152;2023-07-20T02:03:41;1000.1;;;26.63;33.95
54459;BME280;40368;49.350;8.152;2023-07-20T02:04:42;1000.2;;;26.61;33.97
54459;BME280;40368;49.350;8.152;2023-07-20T02:05:42;1000.1;;;26.6;33.89
54459;BME280;40368;49.350;8.152;2023-07-20T02:06:41;1000.1;;;26.59;33.77
54459;BME280;40368;49.350;8.152;2023-07-20T02:07:42;1000.2;;;26.58;33.8
54459;BME280;40368;49.350;8.152;2023-07-20T02:08:41;1000.2;;;26.56;33.98
54459;BME280;40368;49.350;8.152;2023-07-20T02:09:41;1000.2;;;26.54;34.03
54459;BME280;40368;49.350;8.152;2023-07-20T02:10:42;1000.2;;;26.49;34.38
54459;BME280;40368;49.350;8.152;2023-07-20T02:11:41;1000.1;;;26.44;34.25
54459;BME280;40368;49.350;8.152;2023-07-20T02:12:41;1000.2;;;26.46;34.11
54459;BME280;40368;49.350;8.152;2023-07-20T02:13:42;1000.1;;;26.43;34.31
54459;BME280;40368;49.350;8.152;2023-07-20T02:14:41;1000.1;;;26.43;34.37
54459;BME280;40368;49.350;8.152;2023-07-20T02:15:42;1000.2;;;26.39;34.36
54459;BME280;40368;49.350;8.152;2023-07-20T02:16:42;1000.2;;;26.37;34.43
54459;BME280;40368;49.350;8.152;2023-07-20T02:17:41;1000.1;;;26.39;34.49
54459;BME280;40368;49.350;8.152;2023-07-20T02:18:42;1000.2;;;26.41;34.36
54459;BME280;40368;49.350;8.152;2023-07-20T02:19:41;1000.1;;;26.39;34.38
54459;BME280;40368;49.350;8.152;2023-07-20T02:20:41;1000.1;;;26.43;34.16
54459;BME280;40368;49.350;8.152;2023-07-20T02:21:41;1000.1;;;26.42;34.41
54459;BME280;40368;49.350;8.152;2023-07-20T02:22:41;1000.1;;;26.4;34.18
54459;BME280;40368;49.350;8.152;2023-07-20T02:23:41;1000.1;;;26.36;34.54
54459;BME280;40368;49.350;8.152;2023-07-20T02:24:42;1000.1;;;26.35;34.39
54459;BME280;40368;49.350;8.152;2023-07-20T02:25:41;1000.1;;;26.28;34.51
54459;BME280;40368;49.350;8.152;2023-07-20T02:26:42;1000.1;;;26.25;34.68
54459;BME280;40368;49.350;8.152;2023-07-20T02:27:41;1000.1;;;26.27;34.84
54459;BME280;40368;49.350;8.152;2023-07-20T02:28:41;1000.1;;;26.27;34.67
54459;BME280;40368;49.350;8.152;2023-07-20T02:29:42;1000.1;;;26.22;34.73
54459;BME280;40368;49.350;8.152;2023-07-20T02:30:41;1000.1;;;26.24;34.53
54459;BME280;40368;49.350;8.152;2023-07-20T02:31:42;1000;;;26.24;34.67
54459;BME280;40368;49.350;8.152;2023-07-20T02:32:41;1000;;;26.23;34.66
54459;BME280;40368;49.350;8.152;2023-07-20T02:33:41;1000.1;;;26.18;34.96
54459;BME280;40368;49.350;8.152;2023-07-20T02:34:41;1000;;;26.12;34.78
54459;BME280;40368;49.350;8.152;2023-07-20T02:35:41;1000.1;;;26.15;34.36
54459;BME280;40368;49.350;8.152;2023-07-20T02:36:41;1000;;;26.13;34.84
54459;BME280;40368;49.350;8.152;2023-07-20T02:37:41;1000.1;;;26.08;34.96
54459;BME280;40368;49.350;8.152;2023-07-20T02:38:41;1000.1;;;26.08;35.01
54459;BME280;40368;49.350;8.152;2023-07-20T02:39:42;1000.1;;;26.01;35.24
54459;BME280;40368;49.350;8.152;2023-07-20T02:40:41;1000.1;;;25.98;35.31
54459;BME280;40368;49.350;8.152;2023-07-20T02:41:41;1000.1;;;25.93;35.11
54459;BME280;40368;49.350;8.152;2023-07-20T02:42:42;1000.1;;;25.91;35.58
54459;BME280;40368;49.350;8.152;2023-07-20T02:43:41;1000.1;;;25.94;35.21
54459;BME280;40368;49.350;8.152;2023-07-20T02:44:41;1000.1;;;25.95;34.93
54459;BME280;40368;49.350;8.152;2023-07-20T02:45:41;1000.1;;;25.89;35.38
54459;BME280;40368;49.350;8.152;2023-07-20T02:46:42;1000.1;;;25.88;35.24
54459;BME280;40368;49.350;8.152;2023-07-20T02:47:41;1000.1;;;25.9;35.42
54459;BME280;40368;49.350;8.152;2023-07-20T02:48:41;1000.1;;;25.84;35.52
54459;BME280;40368;49.350;8.152;2023-07-20T02:49:41;1000.1;;;25.78;35.62
54459;BME280;40368;49.350;8.152;2023-07-20T02:50:43;1000.1;;;25.74;35.67
54459;BME280;40368;49.350;8.152;2023-07-20T02:51:41;1000.1;;;25.7;35.8
54459;BME280;40368;49.350;8.152;2023-07-20T02:52:41;1000.1;;;25.7;35.7
54459;BME280;40368;49.350;8.152;2023-07-20T02:53:42;1000.1;;;25.7;35.9
54459;BME280;40368;49.350;8.152;2023-07-20T02:54:41;1000.1;;;25.74;35.72
54459;BME280;40368;49.350;8.152;2023-07-20T02:55:42;1000;;;25.74;35.68
54459;BME280;40368;49.350;8.152;2023-07-20T02:56:41;1000.1;;;25.69;36.07
54459;BME280;40368;49.350;8.152;2023-07-20T02:57:42;1000.1;;;25.61;35.9
54459;BME280;40368;49.350;8.152;2023-07-20T02:58:41;1000.1;;;25.57;35.99
54459;BME280;40368;49.350;8.152;2023-07-20T02:59:41;1000.1;;;25.54;36.02
54459;BME280;40368;49.350;8.152;2023-07-20T03:00:42;1000.1;;;25.55;35.94
54459;BME280;40368;49.350;8.152;2023-07-20T03:01:41;1000.1;;;25.54;36.1
54459;BME280;40368;49.350;8.152;2023-07-20T03:02:42;1000.1;;;25.52;36.12
54459;BME280;40368;49.350;8.152;2023-07-20T03:03:42;1000.1;;;25.5;36.18
54459;BME280;40368;49.350;8.152;2023-07-20T03:04:41;1000;;;25.44;36.26
54459;BME280;40368;49.350;8.152;2023-07-20T03:05:42;1000.1;;;25.38;36.37
54459;BME280;40368;49.350;8.152;2023-07-20T03:06:42;1000;;;25.36;36.42
54459;BME280;40368;49.350;8.152;2023-07-20T03:07:42;1000;;;25.34;36.63
54459;BME280;40368;49.350;8.152;2023-07-20T03:08:41;1000.1;;;25.36;36.42
54459;BME280;40368;49.350;8.152;2023-07-20T03:09:41;1000.1;;;25.35;36.38
54459;BME280;40368;49.350;8.152;2023-07-20T03:10:42;1000.1;;;25.34;36.48
54459;BME280;40368;49.350;8.152;2023-07-20T03:11:41;1000.1;;;25.34;36.6
54459;BME280;40368;49.350;8.152;2023-07-20T03:12:41;1000.1;;;25.3;36.69
54459;BME280;40368;49.350;8.152;2023-07-20T03:13:42;1000.1;;;25.27;36.64
54459;BME280;40368;49.350;8.152;2023-07-20T03:14:41;1000.2;;;25.27;36.52
54459;BME280;40368;49.350;8.152;2023-07-20T03:15:42;1000.2;;;25.27;36.75
54459;BME280;40368;49.350;8.152;2023-07-20T03:16:41;1000.2;;;25.24;36.53
54459;BME280;40368;49.350;8.152;2023-07-20T03:17:41;1000.2;;;25.22;36.54
54459;BME280;40368;49.350;8.152;2023-07-20T03:18:41;1000.2;;;25.25;36.42
54459;BME280;40368;49.350;8.152;2023-07-20T03:19:42;1000.2;;;25.25;36.64
54459;BME280;40368;49.350;8.152;2023-07-20T03:20:42;1000.2;;;25.19;36.91
54459;BME280;40368;49.350;8.152;2023-07-20T03:21:41;1000.2;;;25.24;36.69
54459;BME280;40368;49.350;8.152;2023-07-20T03:22:41;1000.2;;;25.33;36.47
54459;BME280;40368;49.350;8.152;2023-07-20T03:23:42;1000.3;;;25.34;36.26
54459;BME280;40368;49.350;8.152;2023-07-20T03:24:41;1000.2;;;25.31;36.55
54459;BME280;40368;49.350;8.152;2023-07-20T03:25:42;1000.3;;;25.25;36.61
54459;BME280;40368;49.350;8.152;2023-07-20T03:26:41;1000.3;;;25.26;36.34
54459;BME280;40368;49.350;8.152;2023-07-20T03:27:42;1000.3;;;25.24;36.66
54459;BME280;40368;49.350;8.152;2023-07-20T03:28:42;1000.3;;;25.27;36.66
54459;BME280;40368;49.350;8.152;2023-07-20T03:29:41;1000.3;;;25.27;36.74
54459;BME280;40368;49.350;8.152;2023-07-20T03:30:41;1000.3;;;25.3;36.36
54459;BME280;40368;49.350;8.152;2023-07-20T03:31:42;1000.3;;;25.38;36.62
54459;BME280;40368;49.350;8.152;2023-07-20T03:32:42;1000.3;;;25.36;36.61
54459;BME280;40368;49.350;8.152;2023-07-20T03:33:42;1000.3;;;25.38;36.39
54459;BME280;40368;49.350;8.152;2023-07-20T03:34:41;1000.3;;;25.36;36.32
54459;BME280;40368;49.350;8.152;2023-07-20T03:35:42;1000.3;;;25.37;36.37
54459;BME280;40368;49.350;8.152;2023-07-20T03:36:42;1000.4;;;25.38;36.52
54459;BME280;40368;49.350;8.152;2023-07-20T03:37:41;1000.4;;;25.33;36.46
54459;BME280;40368;49.350;8.152;2023-07-20T03:38:42;1000.4;;;25.32;36.34
54459;BME280;40368;49.350;8.152;2023-07-20T03:39:41;1000.4;;;25.34;36.62
54459;BME280;40368;49.350;8.152;2023-07-20T03:40:48;1000.4;;;25.34;36.66
54459;BME280;40368;49.350;8.152;2023-07-20T03:41:41;1000.4;;;25.35;36.58
54459;BME280;40368;49.350;8.152;2023-07-20T03:42:41;1000.4;;;25.31;36.39
54459;BME280;40368;49.350;8.152;2023-07-20T03:43:41;1000.4;;;25.33;36.61
54459;BME280;40368;49.350;8.152;2023-07-20T03:44:41;1000.5;;;25.38;36.16
54459;BME280;40368;49.350;8.152;2023-07-20T03:45:42;1000.4;;;25.38;36.36
54459;BME280;40368;49.350;8.152;2023-07-20T03:46:42;1000.5;;;25.34;36.66
54459;BME280;40368;49.350;8.152;2023-07-20T03:47:41;1000.4;;;25.31;36.41
54459;BME280;40368;49.350;8.152;2023-07-20T03:48:41;1000.5;;;25.29;36.72
54459;BME280;40368;49.350;8.152;2023-07-20T03:49:41;1000.4;;;25.29;36.88
54459;BME280;40368;49.350;8.152;2023-07-20T03:50:44;1000.4;;;25.28;36.73
54459;BME280;40368;49.350;8.152;2023-07-20T03:51:42;1000.4;;;25.29;36.79
54459;BME280;40368;49.350;8.152;2023-07-20T03:52:41;1000.4;;;25.3;36.8
54459;BME280;40368;49.350;8.152;2023-07-20T03:53:41;1000.4;;;25.31;36.24
54459;BME280;40368;49.350;8.152;2023-07-20T03:54:42;1000.5;;;25.3;36.81
54459;BME280;40368;49.350;8.152;2023-07-20T03:55:42;1000.4;;;25.25;36.83
54459;BME280;40368;49.350;8.152;2023-07-20T03:56:41;1000.4;;;25.23;36.8
54459;BME280;40368;49.350;8.152;2023-07-20T03:57:41;1000.4;;;25.23;36.51
54459;BME280;40368;49.350;8.152;2023-07-20T03:58:41;1000.4;;;25.28;36.84
54459;BME280;40368;49.350;8.152;2023-07-20T03:59:44;1000.4;;;25.31;36.84
54459;BME280;40368;49.350;8.152;2023-07-20T04:00:44;1000.4;;;25.28;37
54459;BME280;40368;49.350;8.152;2023-07-20T04:01:41;1000.4;;;25.23;36.63
54459;BME280;40368;49.350;8.152;2023-07-20T04:02:41;1000.5;;;25.25;36.5
54459;BME280;40368;49.350;8.152;2023-07-20T04:03:41;1000.4;;;25.26;37.08
54459;BME280;40368;49.350;8.152;2023-07-20T04:04:42;1000.4;;;25.24;36.69
54459;BME280;40368;49.350;8.152;2023-07-20T04:05:42;1000.5;;;25.24;36.81
54459;BME280;40368;49.350;8.152;2023-07-20T04:06:41;1000.4;;;25.26;36.75
54459;BME280;40368;49.350;8.152;2023-07-20T04:07:41;1000.4;;;25.22;36.98
54459;BME280;40368;49.350;8.152;2023-07-20T04:08:42;1000.4;;;25.25;36.75
54459;BME280;40368;49.350;8.152;2023-07-20T04:09:41;1000.4;;;25.27;36.64
54459;BME280;40368;49.350;8.152;2023-07-20T04:10:43;1000.4;;;25.27;36.9
54459;BME280;40368;49.350;8.152;2023-07-20T04:11:42;1000.5;;;25.21;36.85
54459;BME280;40368;49.350;8.152;2023-07-20T04:12:43;1000.4;;;25.19;36.9
54459;BME280;40368;49.350;8.152;2023-07-20T04:13:42;1000.5;;;25.17;37.2
54459;BME280;40368;49.350;8.152;2023-07-20T04:14:41;1000.5;;;25.1;37.13
54459;BME280;40368;49.350;8.152;2023-07-20T04:15:42;1000.5;;;25.11;37.48
54459;BME280;40368;49.350;8.152;2023-07-20T04:16:41;1000.5;;;25.13;36.71
54459;BME280;40368;49.350;8.152;2023-07-20T04:17:41;1000.5;;;25.15;37.07
54459;BME280;40368;49.350;8.152;2023-07-20T04:18:42;1000.5;;;25.14;36.81
54459;BME280;40368;49.350;8.152;2023-07-20T04:19:41;1000.5;;;25.1;37.24
54459;BME280;40368;49.350;8.152;2023-07-20T04:20:41;1000.5;;;25.11;37.04
54459;BME280;40368;49.350;8.152;2023-07-20T04:21:42;1000.5;;;25.11;36.97
54459;BME280;40368;49.350;8.152;2023-07-20T04:22:41;1000.6;;;25.16;36.74
54459;BME280;40368;49.350;8.152;2023-07-20T04:23:41;1000.5;;;25.17;37.09
54459;BME280;40368;49.350;8.152;2023-07-20T04:24:41;1000.6;;;25.16;36.57
54459;BME280;40368;49.350;8.152;2023-07-20T04:25:42;1000.5;;;25.2;36.85
54459;BME280;40368;49.350;8.152;2023-07-20T04:26:41;1000.5;;;25.24;36.7
54459;BME280;40368;49.350;8.152;2023-07-20T04:27:41;1000.5;;;25.31;36.4
54459;BME280;40368;49.350;8.152;2023-07-20T04:28:42;1000.6;;;25.35;36.68
54459;BME280;40368;49.350;8.152;2023-07-20T04:29:41;1000.5;;;25.36;36.27
54459;BME280;40368;49.350;8.152;2023-07-20T04:30:41;1000.6;;;25.42;36.39
54459;BME280;40368;49.350;8.152;2023-07-20T04:31:42;1000.6;;;25.46;36.51
54459;BME280;40368;49.350;8.152;2023-07-20T04:32:41;1000.6;;;25.46;36.44
54459;BME280;40368;49.350;8.152;2023-07-20T04:33:42;1000.6;;;25.41;36.23
54459;BME280;40368;49.350;8.152;2023-07-20T04:34:42;1000.6;;;25.45;35.98
54459;BME280;40368;49.350;8.152;2023-07-20T04:35:45;1000.6;;;25.45;36.65
54459;BME280;40368;49.350;8.152;2023-07-20T04:36:41;1000.7;;;25.42;36.49
54459;BME280;40368;49.350;8.152;2023-07-20T04:37:41;1000.7;;;25.4;36.41
54459;BME280;40368;49.350;8.152;2023-07-20T04:38:42;1000.7;;;25.44;36.08
54459;BME280;40368;49.350;8.152;2023-07-20T04:39:42;1000.7;;;25.44;36.38
54459;BME280;40368;49.350;8.152;2023-07-20T04:40:41;1000.7;;;25.41;36.8
54459;BME280;40368;49.350;8.152;2023-07-20T04:41:41;1000.7;;;25.43;36.05
54459;BME280;40368;49.350;8.152;2023-07-20T04:42:41;1000.6;;;25.46;36.05
54459;BME280;40368;49.350;8.152;2023-07-20T04:43:42;1000.7;;;25.42;36.15
54459;BME280;40368;49.350;8.152;2023-07-20T04:44:41;1000.7;;;25.41;36.29
54459;BME280;40368;49.350;8.152;2023-07-20T04:45:42;1000.7;;;25.4;36.75
54459;BME280;40368;49.350;8.152;2023-07-20T04:46:42;1000.6;;;25.42;36.73
54459;BME280;40368;49.350;8.152;2023-07-20T04:47:41;1000.6;;;25.38;36.76
54459;BME280;40368;49.350;8.152;2023-07-20T04:48:41;1000.6;;;25.32;36.5
54459;BME280;40368;49.350;8.152;2023-07-20T04:49:42;1000.6;;;25.34;36.49
54459;BME280;40368;49.350;8.152;2023-07-20T04:50:43;1000.6;;;25.39;36.5
54459;BME280;40368;49.350;8.152;2023-07-20T04:51:41;1000.6;;;25.42;36.43
54459;BME280;40368;49.350;8.152;2023-07-20T04:52:42;1000.6;;;25.39;36.97
54459;BME280;40368;49.350;8.152;2023-07-20T04:53:41;1000.6;;;25.37;36.46
54459;BME280;40368;49.350;8.152;2023-07-20T04:54:41;1000.6;;;25.36;36.99
54459;BME280;40368;49.350;8.152;2023-07-20T04:55:47;1000.6;;;25.36;36.51
54459;BME280;40368;49.350;8.152;2023-07-20T04:56:42;1000.6;;;25.34;37.25
54459;BME280;40368;49.350;8.152;2023-07-20T04:57:42;1000.6;;;25.33;37.05
54459;BME280;40368;49.350;8.152;2023-07-20T04:58:41;1000.6;;;25.33;36.35
54459;BME280;40368;49.350;8.152;2023-07-20T04:59:41;1000.6;;;25.36;36.97
54459;BME280;40368;49.350;8.152;2023-07-20T05:00:42;1000.6;;;25.39;37.17
54459;BME280;40368;49.350;8.152;2023-07-20T05:01:41;1000.6;;;25.4;36.28
54459;BME280;40368;49.350;8.152;2023-07-20T05:02:41;1000.5;;;25.47;36.45
54459;BME280;40368;49.350;8.152;2023-07-20T05:03:41;1000.6;;;25.47;36.46
54459;BME280;40368;49.350;8.152;2023-07-20T05:04:42;1000.6;;;25.45;36.27
54459;BME280;40368;49.350;8.152;2023-07-20T05:05:42;1000.6;;;25.5;36.11
54459;BME280;40368;49.350;8.152;2023-07-20T05:06:41;1000.6;;;25.54;36.81
54459;BME280;40368;49.350;8.152;2023-07-20T05:07:41;1000.6;;;25.55;36.08
54459;BME280;40368;49.350;8.152;2023-07-20T05:08:41;1000.6;;;25.57;36.44
54459;BME280;40368;49.350;8.152;2023-07-20T05:09:41;1000.6;;;25.56;36.57
54459;BME280;40368;49.350;8.152;2023-07-20T05:10:41;1000.6;;;25.58;35.96
54459;BME280;40368;49.350;8.152;2023-07-20T05:11:42;1000.6;;;25.61;36.05
54459;BME280;40368;49.350;8.152;2023-07-20T05:12:42;1000.6;;;25.65;35.94
54459;BME280;40368;49.350;8.152;2023-07-20T05:13:41;1000.6;;;25.65;35.74
54459;BME280;40368;49.350;8.152;2023-07-20T05:14:42;1000.6;;;25.71;35.54
54459;BME280;40368;49.350;8.152;2023-07-20T05:15:42;1000.6;;;25.76;35.74
54459;BME280;40368;49.350;8.152;2023-07-20T05:16:42;1000.6;;;25.8;35.53
54459;BME280;40368;49.350;8.152;2023-07-20T05:17:41;1000.6;;;25.83;35.66
54459;BME280;40368;49.350;8.152;2023-07-20T05:18:43;1000.6;;;25.83;35.89
54459;BME280;40368;49.350;8.152;2023-07-20T05:19:41;1000.6;;;25.83;35.41
54459;BME280;40368;49.350;8.152;2023-07-20T05:20:41;1000.7;;;25.8;36
54459;BME280;40368;49.350;8.152;2023-07-20T05:21:41;1000.7;;;25.8;36.03
54459;BME280;40368;49.350;8.152;2023-07-20T05:22:42;1000.7;;;25.72;35.67
54459;BME280;40368;49.350;8.152;2023-07-20T05:23:42;1000.7;;;25.74;36.12
54459;BME280;40368;49.350;8.152;2023-07-20T05:24:41;1000.7;;;25.78;35.98
54459;BME280;40368;49.350;8.152;2023-07-20T05:25:42;1000.7;;;25.79;35.78
54459;BME280;40368;49.350;8.152;2023-07-20T05:26:42;1000.7;;;25.77;36.11
54459;BME280;40368;49.350;8.152;2023-07-20T05:27:42;1000.7;;;25.75;35.93